createdAt,value
2022-12-29T00:00:56.218Z,11.77
2022-12-29T00:03:22.972Z,12.17
2022-12-29T00:05:56.466Z,11.80
2022-12-29T00:08:40.155Z,11.93
2022-12-29T00:11:17.133Z,12.13
2022-12-29T00:14:03.537Z,12.20
2022-12-29T00:16:31.390Z,11.57
2022-12-29T00:18:58.528Z,11.50
2022-12-29T00:21:45.315Z,11.20
2022-12-29T00:24:23.234Z,11.03
2022-12-29T00:27:16.225Z,11.27
2022-12-29T00:30:01.909Z,11.17
2022-12-29T00:32:47.290Z,11.33
2022-12-29T00:35:25.386Z,10.70
2022-12-29T00:38:11.853Z,10.80
2022-12-29T00:40:57.136Z,10.27
2022-12-29T00:43:44.151Z,10.30
2022-12-29T00:46:15.826Z,11.27
2022-12-29T00:49:04.628Z,10.63
2022-12-29T00:51:31.398Z,10.63
2022-12-29T00:53:58.308Z,9.90
2022-12-29T00:56:25.071Z,10.73
2022-12-29T00:58:53.465Z,10.30
2022-12-29T01:01:23.558Z,9.67
2022-12-29T01:03:50.520Z,10.00
2022-12-29T01:06:17.324Z,10.50
2022-12-29T01:08:45.187Z,10.27
2022-12-29T01:11:13.595Z,10.27
2022-12-29T01:13:42.145Z,10.70
2022-12-29T01:16:09.273Z,10.60
2022-12-29T01:18:36.039Z,11.60
2022-12-29T01:21:06.082Z,11.30
2022-12-29T01:23:34.071Z,10.67
2022-12-29T01:26:12.234Z,10.80
2022-12-29T01:28:41.018Z,11.77
2022-12-29T01:31:12.055Z,10.90
2022-12-29T01:33:39.027Z,10.53
2022-12-29T01:36:08.076Z,10.57
2022-12-29T01:38:36.597Z,10.27
2022-12-29T01:41:04.271Z,11.00
2022-12-29T01:43:54.800Z,10.17
2022-12-29T01:46:27.738Z,10.20
2022-12-29T01:49:03.579Z,11.33
2022-12-29T01:51:32.539Z,11.13
2022-12-29T01:54:06.104Z,10.33
2022-12-29T01:56:33.237Z,10.60
2022-12-29T01:59:10.247Z,10.57
2022-12-29T02:01:37.335Z,10.00
2022-12-29T02:04:05.113Z,9.57
2022-12-29T02:06:42.455Z,10.43
2022-12-29T02:09:09.176Z,10.10
2022-12-29T02:11:37.372Z,9.93
2022-12-29T02:14:10.527Z,9.53
2022-12-29T02:16:49.472Z,9.27
2022-12-29T02:19:37.502Z,8.77
2022-12-29T02:22:22.491Z,9.40
2022-12-29T02:25:23.030Z,9.53
2022-12-29T02:27:59.160Z,8.70
2022-12-29T02:30:46.593Z,9.63
2022-12-29T02:33:13.311Z,9.30
2022-12-29T02:36:09.197Z,9.00
2022-12-29T02:38:54.713Z,9.30
2022-12-29T02:41:34.367Z,9.57
2022-12-29T02:44:19.495Z,8.90
2022-12-29T02:46:54.543Z,8.87
2022-12-29T02:49:37.244Z,9.30
2022-12-29T02:52:13.861Z,9.73
2022-12-29T02:54:41.776Z,9.17
2022-12-29T02:57:33.769Z,8.70
2022-12-29T03:00:14.551Z,8.87
2022-12-29T03:02:41.528Z,9.33
2022-12-29T03:05:27.059Z,9.47
2022-12-29T03:07:53.898Z,9.27
2022-12-29T03:10:29.475Z,8.50
2022-12-29T03:13:53.991Z,8.63
2022-12-29T03:16:52.750Z,8.60
2022-12-29T03:19:27.659Z,9.23
2022-12-29T03:22:27.921Z,9.23
2022-12-29T03:25:03.729Z,8.70
2022-12-29T03:27:42.936Z,8.97
2022-12-29T03:30:10.965Z,9.47
2022-12-29T03:32:44.270Z,9.90
2022-12-29T03:35:14.727Z,9.43
2022-12-29T03:37:48.734Z,9.43
2022-12-29T03:40:15.629Z,9.33
2022-12-29T03:42:43.512Z,9.23
2022-12-29T03:45:11.867Z,9.10
2022-12-29T03:47:40.777Z,9.03
2022-12-29T03:50:09.587Z,8.43
2022-12-29T03:52:36.344Z,10.43
2022-12-29T03:55:03.217Z,9.40
2022-12-29T03:57:30.022Z,9.87
2022-12-29T03:59:56.854Z,9.27
2022-12-29T04:02:24.819Z,9.57
2022-12-29T04:04:51.756Z,8.77
2022-12-29T04:07:18.465Z,9.40
2022-12-29T04:09:45.319Z,9.47
2022-12-29T04:12:12.283Z,8.83
2022-12-29T04:14:39.640Z,9.13
2022-12-29T04:17:06.336Z,9.73
2022-12-29T04:19:34.922Z,9.60
2022-12-29T04:22:02.101Z,9.40
2022-12-29T04:24:28.843Z,9.77
2022-12-29T04:26:55.728Z,9.40
2022-12-29T04:29:22.778Z,9.00
2022-12-29T04:31:49.578Z,9.23
2022-12-29T04:34:16.385Z,9.40
2022-12-29T04:36:45.224Z,9.67
2022-12-29T04:39:12.013Z,10.00
2022-12-29T04:41:39.191Z,9.47
2022-12-29T04:44:06.053Z,9.93
2022-12-29T04:46:32.912Z,10.10
2022-12-29T04:49:05.847Z,9.67
2022-12-29T04:51:32.899Z,9.00
2022-12-29T04:53:59.618Z,9.97
2022-12-29T04:56:26.385Z,9.40
2022-12-29T04:58:53.089Z,9.53
2022-12-29T05:01:19.942Z,9.80
2022-12-29T05:03:46.813Z,9.70
2022-12-29T05:06:13.664Z,9.23
2022-12-29T05:08:40.377Z,10.37
2022-12-29T05:11:07.168Z,10.63
2022-12-29T05:13:34.593Z,10.40
2022-12-29T05:16:01.503Z,10.40
2022-12-29T05:18:28.356Z,10.50
2022-12-29T05:20:55.057Z,10.57
2022-12-29T05:23:21.916Z,11.00
2022-12-29T05:25:48.598Z,10.70
2022-12-29T05:28:15.307Z,10.90
2022-12-29T05:30:42.091Z,10.50
2022-12-29T05:33:08.835Z,10.43
2022-12-29T05:35:35.613Z,11.20
2022-12-29T05:38:02.347Z,10.13
2022-12-29T05:40:29.049Z,10.30
2022-12-29T05:42:55.751Z,11.30
2022-12-29T05:45:22.402Z,10.87
2022-12-29T05:47:49.193Z,10.87
2022-12-29T05:50:16.038Z,11.30
2022-12-29T05:52:45.028Z,11.47
2022-12-29T05:55:12.917Z,10.90
2022-12-29T05:57:39.727Z,12.03
2022-12-29T06:00:08.122Z,11.30
2022-12-29T06:02:35.226Z,11.97
2022-12-29T06:05:01.937Z,11.90
2022-12-29T06:07:29.126Z,11.80
2022-12-29T06:09:55.939Z,11.57
2022-12-29T06:12:22.678Z,11.70
2022-12-29T06:14:49.618Z,11.43
2022-12-29T06:17:16.333Z,11.00
2022-12-29T06:19:45.383Z,11.80
2022-12-29T06:22:13.270Z,10.70
2022-12-29T06:24:40.513Z,10.83
2022-12-29T06:27:07.494Z,10.90
2022-12-29T06:29:35.943Z,11.20
2022-12-29T06:32:02.699Z,11.60
2022-12-29T06:34:32.546Z,11.27
2022-12-29T06:36:59.257Z,10.83
2022-12-29T06:39:26.032Z,11.37
2022-12-29T06:41:54.564Z,11.13
2022-12-29T06:44:22.625Z,11.70
2022-12-29T06:46:50.326Z,11.00
2022-12-29T06:49:19.787Z,11.03
2022-12-29T06:51:46.581Z,10.93
2022-12-29T06:54:13.902Z,11.63
2022-12-29T06:56:43.754Z,11.60
2022-12-29T06:59:11.226Z,11.30
2022-12-29T07:01:38.174Z,12.03
2022-12-29T07:04:05.095Z,11.93
2022-12-29T07:06:31.742Z,12.30
2022-12-29T07:09:01.339Z,12.00
2022-12-29T07:11:28.109Z,11.70
2022-12-29T07:13:54.818Z,12.10
2022-12-29T07:16:21.786Z,11.47
2022-12-29T07:18:48.556Z,12.70
2022-12-29T07:21:15.418Z,12.13
2022-12-29T07:23:42.330Z,12.63
2022-12-29T07:26:12.883Z,12.20
2022-12-29T07:28:43.140Z,11.40
2022-12-29T07:31:16.711Z,12.63
2022-12-29T07:33:44.928Z,12.43
2022-12-29T07:36:12.969Z,12.67
2022-12-29T07:38:39.799Z,12.40
2022-12-29T07:41:06.815Z,12.27
2022-12-29T07:43:33.627Z,12.10
2022-12-29T07:46:04.048Z,11.73
2022-12-29T07:48:30.834Z,12.40
2022-12-29T07:50:57.533Z,11.63
2022-12-29T07:53:24.581Z,11.83
2022-12-29T07:55:51.262Z,12.47
2022-12-29T07:58:18.049Z,12.37
2022-12-29T08:00:44.773Z,12.30
2022-12-29T08:03:11.947Z,12.07
2022-12-29T08:05:38.634Z,12.93
2022-12-29T08:08:06.014Z,12.90
2022-12-29T08:10:32.787Z,12.60
2022-12-29T08:12:59.608Z,11.50
2022-12-29T08:15:32.197Z,11.60
2022-12-29T08:17:59.296Z,11.10
2022-12-29T08:20:26.008Z,11.63
2022-12-29T08:22:53.128Z,11.87
2022-12-29T08:25:20.649Z,12.70
2022-12-29T08:27:47.469Z,11.13
2022-12-29T08:30:14.514Z,10.93
2022-12-29T08:32:41.252Z,11.73
2022-12-29T08:35:08.549Z,11.67
2022-12-29T08:37:35.897Z,11.70
2022-12-29T08:40:04.778Z,11.97
2022-12-29T08:42:32.409Z,11.20
2022-12-29T08:45:02.696Z,12.07
2022-12-29T08:47:29.450Z,12.10
2022-12-29T08:49:56.226Z,12.27
2022-12-29T08:52:23.950Z,12.00
2022-12-29T08:54:50.823Z,11.80
2022-12-29T08:57:17.452Z,12.47
2022-12-29T08:59:44.203Z,11.57
2022-12-29T09:02:18.740Z,11.83
2022-12-29T09:04:49.206Z,11.63
2022-12-29T09:07:16.106Z,12.20
2022-12-29T09:09:42.802Z,12.43
2022-12-29T09:12:09.784Z,11.00
2022-12-29T09:14:36.497Z,11.33
2022-12-29T09:17:21.580Z,11.23
2022-12-29T09:19:48.282Z,12.30
2022-12-29T09:22:15.049Z,11.50
2022-12-29T09:24:41.787Z,11.90
2022-12-29T09:27:08.439Z,12.20
2022-12-29T09:29:35.203Z,12.07
2022-12-29T09:32:02.011Z,11.83
2022-12-29T09:34:28.720Z,11.20
2022-12-29T09:36:57.076Z,11.87
2022-12-29T09:39:24.968Z,11.47
2022-12-29T09:42:21.175Z,10.83
2022-12-29T09:44:47.984Z,10.87
2022-12-29T09:47:17.141Z,10.53
2022-12-29T09:50:04.677Z,11.20
2022-12-29T09:52:44.479Z,11.00
2022-12-29T09:55:16.221Z,12.13
2022-12-29T09:57:45.951Z,10.73
2022-12-29T10:00:24.912Z,11.13
2022-12-29T10:02:54.472Z,11.07
2022-12-29T10:05:47.219Z,11.10
2022-12-29T10:08:25.747Z,10.90
2022-12-29T10:11:24.091Z,10.80
2022-12-29T10:13:59.851Z,11.47
2022-12-29T10:16:53.474Z,11.57
2022-12-29T10:19:43.605Z,10.77
2022-12-29T10:22:24.173Z,11.13
2022-12-29T10:24:53.815Z,10.63
2022-12-29T10:27:21.182Z,11.50
2022-12-29T10:29:58.512Z,11.50
2022-12-29T10:32:35.972Z,11.60
2022-12-29T10:35:16.892Z,11.67
2022-12-29T10:37:44.093Z,11.47
2022-12-29T10:40:23.093Z,11.83
2022-12-29T10:42:56.044Z,12.03
2022-12-29T10:45:26.493Z,11.63
2022-12-29T10:48:03.117Z,11.97
2022-12-29T10:50:30.896Z,11.90
2022-12-29T10:53:01.647Z,11.27
2022-12-29T10:55:37.549Z,10.60
2022-12-29T10:58:08.512Z,11.47
2022-12-29T11:00:35.299Z,10.70
2022-12-29T11:03:35.866Z,10.30
2022-12-29T11:06:19.091Z,11.23
2022-12-29T11:08:54.863Z,10.70
2022-12-29T11:11:36.595Z,11.17
2022-12-29T11:14:19.256Z,11.30
2022-12-29T11:17:01.374Z,11.33
2022-12-29T11:19:34.882Z,11.27
2022-12-29T11:22:24.684Z,11.20
2022-12-29T11:24:53.634Z,11.50
2022-12-29T11:27:23.770Z,11.30
2022-12-29T11:29:52.162Z,11.53
2022-12-29T11:32:28.410Z,11.33
2022-12-29T11:34:58.427Z,11.23
2022-12-29T11:37:40.017Z,11.23
2022-12-29T11:40:18.714Z,10.57
2022-12-29T11:42:57.707Z,11.10
2022-12-29T11:45:34.529Z,11.30
2022-12-29T11:48:07.944Z,10.70
2022-12-29T11:50:42.150Z,11.50
2022-12-29T11:53:22.531Z,10.97
2022-12-29T11:55:59.464Z,10.60
2022-12-29T11:58:37.448Z,10.50
2022-12-29T12:01:22.102Z,10.93
2022-12-29T12:04:01.274Z,10.53
2022-12-29T12:06:30.350Z,10.93
2022-12-29T12:09:04.025Z,11.30
2022-12-29T12:11:38.983Z,11.00
2022-12-29T12:14:26.855Z,11.33
2022-12-29T12:17:13.448Z,12.00
2022-12-29T12:19:45.796Z,10.67
2022-12-29T12:22:23.011Z,10.67
2022-12-29T12:25:03.138Z,11.10
2022-12-29T12:27:41.071Z,11.50
2022-12-29T12:30:19.663Z,11.20
2022-12-29T12:33:14.731Z,11.00
2022-12-29T12:36:02.637Z,11.27
2022-12-29T12:38:50.495Z,10.83
2022-12-29T12:41:36.529Z,10.83
2022-12-29T12:44:17.912Z,10.80
2022-12-29T12:47:14.196Z,10.80
2022-12-29T12:50:27.890Z,10.67
2022-12-29T12:53:03.627Z,11.10
2022-12-29T12:55:47.182Z,10.30
2022-12-29T12:58:25.937Z,10.70
2022-12-29T13:01:14.483Z,10.50
2022-12-29T13:04:23.163Z,10.53
2022-12-29T13:06:58.958Z,10.60
2022-12-29T13:09:48.963Z,10.67
2022-12-29T13:12:47.081Z,10.43
2022-12-29T13:15:26.496Z,11.10
2022-12-29T13:18:18.850Z,11.30
2022-12-29T13:20:57.608Z,12.10
2022-12-29T13:23:45.895Z,11.50
2022-12-29T13:26:34.296Z,11.60
2022-12-29T13:29:11.903Z,10.50
2022-12-29T13:32:09.120Z,10.43
2022-12-29T13:34:49.997Z,10.70
2022-12-29T13:37:21.025Z,11.40
2022-12-29T13:39:53.298Z,11.00
2022-12-29T13:42:22.220Z,11.30
2022-12-29T13:45:15.648Z,11.30
2022-12-29T13:47:49.022Z,9.97
2022-12-29T13:50:20.047Z,10.37
2022-12-29T13:53:02.438Z,10.17
2022-12-29T13:55:53.161Z,10.50
2022-12-29T13:58:45.983Z,10.40
2022-12-29T14:01:40.649Z,10.97
2022-12-29T14:04:15.897Z,10.40
2022-12-29T14:06:59.814Z,11.07
2022-12-29T14:09:47.444Z,11.37
2022-12-29T14:12:40.011Z,11.23
2022-12-29T14:15:23.841Z,11.13
2022-12-29T14:18:19.857Z,11.33
2022-12-29T14:21:05.278Z,11.53
2022-12-29T14:23:41.811Z,11.43
2022-12-29T14:26:08.417Z,11.27
2022-12-29T14:28:38.043Z,11.97
2022-12-29T14:31:26.185Z,11.20
2022-12-29T14:34:08.362Z,11.10
2022-12-29T14:36:38.645Z,10.97
2022-12-29T14:39:28.062Z,11.50
2022-12-29T14:42:04.353Z,11.30
2022-12-29T14:44:31.540Z,12.00
2022-12-29T14:47:02.564Z,11.70
2022-12-29T14:49:33.013Z,11.27
2022-12-29T14:52:14.563Z,12.23
2022-12-29T14:54:51.632Z,11.80
2022-12-29T14:57:45.724Z,11.97
2022-12-29T15:00:34.988Z,11.50
2022-12-29T15:03:29.502Z,11.07
2022-12-29T15:06:09.857Z,11.23
2022-12-29T15:08:41.527Z,11.40
2022-12-29T15:11:43.323Z,11.07
2022-12-29T15:14:31.308Z,10.47
2022-12-29T15:16:58.113Z,10.63
2022-12-29T15:19:26.520Z,11.10
2022-12-29T15:21:54.976Z,11.30
2022-12-29T15:24:21.734Z,10.80
2022-12-29T15:26:52.906Z,11.43
2022-12-29T15:29:39.430Z,11.40
2022-12-29T15:32:25.612Z,11.23
2022-12-29T15:34:55.394Z,11.07
2022-12-29T15:37:28.878Z,11.17
2022-12-29T15:39:56.848Z,10.80
2022-12-29T15:42:29.581Z,10.83
2022-12-29T15:45:09.296Z,10.00
2022-12-29T15:47:37.129Z,10.90
2022-12-29T15:50:27.332Z,12.03
2022-12-29T15:52:54.586Z,11.20
2022-12-29T15:55:36.369Z,11.60
2022-12-29T15:58:05.609Z,11.13
2022-12-29T16:00:37.441Z,11.07
2022-12-29T16:03:06.660Z,10.10
2022-12-29T16:05:38.876Z,10.73
2022-12-29T16:08:42.099Z,10.87
2022-12-29T16:11:24.922Z,10.70
2022-12-29T16:13:53.893Z,10.23
2022-12-29T16:16:29.404Z,10.80
2022-12-29T16:18:58.122Z,10.70
2022-12-29T16:21:35.133Z,11.10
2022-12-29T16:24:06.761Z,10.40
2022-12-29T16:26:33.603Z,10.67
2022-12-29T16:29:05.957Z,11.57
2022-12-29T16:31:48.162Z,10.57
2022-12-29T16:34:29.741Z,10.20
2022-12-29T16:36:59.820Z,10.90
2022-12-29T16:39:40.212Z,10.27
2022-12-29T16:42:52.275Z,11.27
2022-12-29T16:45:42.501Z,11.00
2022-12-29T16:48:22.575Z,10.73
2022-12-29T16:50:50.515Z,11.10
2022-12-29T16:53:28.084Z,10.40
2022-12-29T16:55:56.691Z,10.90
2022-12-29T16:58:26.899Z,11.40
2022-12-29T17:00:56.932Z,11.63
2022-12-29T17:03:28.962Z,11.27
2022-12-29T17:05:57.629Z,11.00
2022-12-29T17:08:24.618Z,11.60
2022-12-29T17:11:13.198Z,10.83
2022-12-29T17:13:40.199Z,10.23
2022-12-29T17:16:08.959Z,11.30
2022-12-29T17:18:36.138Z,10.73
2022-12-29T17:21:02.976Z,10.30
2022-12-29T17:23:33.454Z,10.50
2022-12-29T17:26:00.281Z,10.80
2022-12-29T17:28:30.543Z,10.03
2022-12-29T17:31:02.067Z,10.40
2022-12-29T17:33:35.191Z,10.57
2022-12-29T17:36:01.922Z,10.60
2022-12-29T17:38:31.407Z,10.93
2022-12-29T17:40:59.221Z,12.40
2022-12-29T17:43:29.051Z,11.03
2022-12-29T17:46:01.549Z,11.03
2022-12-29T17:48:28.316Z,11.63
2022-12-29T17:50:57.976Z,11.00
2022-12-29T17:53:27.728Z,11.13
2022-12-29T17:55:54.487Z,10.47
2022-12-29T17:58:29.016Z,11.30
2022-12-29T18:01:01.077Z,11.53
2022-12-29T18:03:37.318Z,10.80
2022-12-29T18:06:08.156Z,10.50
2022-12-29T18:08:39.060Z,10.20
2022-12-29T18:11:25.483Z,11.07
2022-12-29T18:13:53.762Z,10.03
2022-12-29T18:16:21.875Z,10.07
2022-12-29T18:18:48.595Z,10.47
2022-12-29T18:21:20.804Z,10.23
2022-12-29T18:23:48.767Z,10.30
2022-12-29T18:26:25.500Z,10.53
2022-12-29T18:28:55.133Z,10.87
2022-12-29T18:31:27.908Z,10.70
2022-12-29T18:33:56.699Z,11.03
2022-12-29T18:36:23.679Z,11.57
2022-12-29T18:38:52.065Z,10.87
2022-12-29T18:41:22.561Z,10.20
2022-12-29T18:43:49.632Z,11.07
2022-12-29T18:46:22.395Z,11.53
2022-12-29T18:48:50.914Z,11.03
2022-12-29T18:51:23.073Z,11.27
2022-12-29T18:53:50.767Z,11.17
2022-12-29T18:56:17.437Z,11.17
2022-12-29T18:58:44.197Z,11.60
2022-12-29T19:01:21.652Z,11.27
2022-12-29T19:03:48.938Z,11.43
2022-12-29T19:06:15.703Z,10.93
2022-12-29T19:08:42.580Z,11.30
2022-12-29T19:11:09.472Z,11.13
2022-12-29T19:13:36.671Z,10.83
2022-12-29T19:16:03.479Z,11.07
2022-12-29T19:18:43.606Z,10.47
2022-12-29T19:21:11.588Z,10.80
2022-12-29T19:23:38.350Z,11.17
2022-12-29T19:26:05.250Z,11.60
2022-12-29T19:28:32.043Z,11.00
2022-12-29T19:31:00.696Z,11.03
2022-12-29T19:33:28.154Z,9.87
2022-12-29T19:36:00.287Z,11.30
2022-12-29T19:38:27.099Z,10.80
2022-12-29T19:40:53.757Z,11.03
2022-12-29T19:43:20.732Z,11.40
2022-12-29T19:45:47.419Z,10.70
2022-12-29T19:48:21.475Z,10.93
2022-12-29T19:50:48.204Z,10.97
2022-12-29T19:53:15.777Z,11.13
2022-12-29T19:55:46.678Z,11.17
2022-12-29T19:58:13.835Z,10.87
2022-12-29T20:00:42.483Z,11.63
2022-12-29T20:03:09.894Z,10.90
2022-12-29T20:05:37.119Z,10.70
2022-12-29T20:08:03.895Z,11.37
2022-12-29T20:10:30.715Z,11.07
2022-12-29T20:12:57.385Z,11.37
2022-12-29T20:15:24.107Z,11.50
2022-12-29T20:20:37.507Z,11.13
2022-12-29T20:23:04.221Z,11.90
2022-12-29T20:25:47.318Z,11.93
2022-12-29T20:28:15.692Z,11.80
2022-12-29T20:30:42.997Z,11.17
2022-12-29T20:33:10.008Z,11.27
2022-12-29T20:35:37.417Z,11.50
2022-12-29T20:38:04.551Z,11.47
2022-12-29T20:40:32.235Z,11.50
2022-12-29T20:42:59.038Z,11.10
2022-12-29T20:45:26.493Z,11.10
2022-12-29T20:47:53.415Z,12.50
2022-12-29T20:50:20.245Z,11.60
2022-12-29T20:52:47.091Z,11.73
2022-12-29T20:55:14.082Z,11.60
2022-12-29T20:58:14.161Z,11.67
2022-12-29T21:00:30.464Z,12.30
2022-12-29T21:02:58.582Z,11.63
2022-12-29T21:05:26.083Z,11.83
2022-12-29T21:07:53.643Z,12.43
2022-12-29T21:10:21.018Z,11.93
2022-12-29T21:12:48.519Z,11.83
2022-12-29T21:15:15.585Z,11.67
2022-12-29T21:17:43.590Z,11.10
2022-12-29T21:20:19.546Z,11.80
2022-12-29T21:22:47.498Z,11.87
2022-12-29T21:25:14.492Z,11.17
2022-12-29T21:27:46.970Z,12.03
2022-12-29T21:30:14.178Z,11.53
2022-12-29T21:32:41.649Z,11.90
2022-12-29T21:35:09.466Z,11.73
2022-12-29T21:37:36.619Z,11.87
2022-12-29T21:40:04.632Z,11.10
2022-12-29T21:42:31.603Z,11.77
2022-12-29T21:45:20.809Z,10.87
2022-12-29T21:48:06.786Z,11.20
2022-12-29T21:50:33.702Z,10.80
2022-12-29T21:53:00.485Z,12.17
2022-12-29T21:55:27.210Z,10.80
2022-12-29T21:58:31.902Z,11.90
2022-12-29T22:01:17.515Z,10.47
2022-12-29T22:04:02.755Z,10.10
2022-12-29T22:06:48.211Z,10.50
2022-12-29T22:09:37.303Z,10.40
2022-12-29T22:12:25.521Z,9.93
2022-12-29T22:14:52.151Z,10.33
2022-12-29T22:17:19.606Z,10.33
2022-12-29T22:19:46.556Z,10.40
2022-12-29T22:22:13.607Z,10.00
2022-12-29T22:24:40.284Z,10.00
2022-12-29T22:27:06.970Z,10.27
2022-12-29T22:29:33.613Z,10.63
2022-12-29T22:32:00.355Z,9.93
2022-12-29T22:34:27.079Z,10.30
2022-12-29T22:36:53.710Z,10.60
2022-12-29T22:39:20.424Z,10.07
2022-12-29T22:41:47.078Z,10.60
2022-12-29T22:44:13.757Z,10.67
2022-12-29T22:46:40.534Z,10.63
2022-12-29T22:49:07.284Z,10.50
2022-12-29T22:51:34.001Z,10.90
2022-12-29T22:54:00.708Z,10.63
2022-12-29T22:56:27.412Z,10.50
2022-12-29T22:58:54.180Z,10.67
2022-12-29T23:01:23.795Z,9.93
2022-12-29T23:03:50.806Z,9.83
2022-12-29T23:06:17.941Z,10.50
2022-12-29T23:08:45.149Z,10.40
2022-12-29T23:11:13.378Z,11.30
2022-12-29T23:13:41.082Z,10.57
2022-12-29T23:16:08.054Z,10.83
2022-12-29T23:18:34.921Z,10.30
2022-12-29T23:21:01.705Z,9.17
2022-12-29T23:23:49.466Z,9.50
2022-12-29T23:26:18.191Z,9.93
2022-12-29T23:28:45.254Z,9.57
2022-12-29T23:31:12.150Z,9.30
2022-12-29T23:33:39.032Z,9.50
2022-12-29T23:36:06.261Z,9.87
2022-12-29T23:38:33.216Z,9.70
2022-12-29T23:41:00.262Z,9.50
2022-12-29T23:43:27.114Z,9.70
2022-12-29T23:45:53.785Z,10.27
2022-12-29T23:48:20.555Z,10.37
2022-12-29T23:50:47.308Z,9.93
2022-12-29T23:53:14.362Z,10.10
2022-12-29T23:55:43.353Z,9.73
2022-12-29T23:58:10.920Z,9.87
